Hickory Flat, Arkansas
Current Conditions -  °F | °C
As of 12:56 AM on Monday 24 Nov 2014 (Local Time) from KSRC Reporting Station
Overcast Overcast  
Wind Chill: 57°   Ceiling: 3400
Heat Index: 57°   Visibility: 10mi
Dew Point: 49°   Wind: 17mph
Humidity: 74%   Direction: 250°WSW
Pressure: 29.47"   Gusts: 30mph
Location:  35.4331°N, 91.7663°W
Report Text: KSRC 240656Z AUTO 25015G26KT 10SM FEW029 OVC034 14/09 A2947 RMK AO2 PK WND 24029/0626 SLP984 T01390094 TSNO
Loading
Personal Weather Stations






























Interactive Weather Map New forecast layout! Learn more

10-Day Weather Forecast

Advertisements
Track Severe Weather on mobile